Lanes Prairie, Missouri
Current Conditions -  °F | °C
As of 3:53 PM on Saturday 20 Dec 2014 (Local Time) from KVIH Reporting Station
Overcast Overcast  
Wind Chill: 37°   Ceiling: 1900
Heat Index: 41°   Visibility: 10mi
Dew Point: 35°   Wind: 6mph
Humidity: 79%   Direction: 200°SSW
Pressure: 30.17"   Gusts: NA
Location:  38.2601°N, 91.7526°W
Report Text: KVIH 202153Z AUTO 20005KT 10SM OVC019 05/02 A3017 RMK AO2 SLP223 T00500017
Loading
Personal Weather Stations






























Interactive Weather Map New forecast layout! Learn more

10-Day Weather Forecast

Advertisements
Track Severe Weather on mobile